Hovedside
METAR-TAF:

METAR-TAF

Lufthavner :

Åre Östersund lufthavn

Östersund-Frösön, Sverige

breddegrad: 63-11N, lengdegrad: 014-30E, høyde over havet: 376 m

Gjeldene værobservasjon

Denne rapporten ble laget for 16 minutter siden, klokken 17:20 UTC
Vind 3 kt fra Vest
Temperatur 5°C
Luftfuktighet 87%
Trykk 1004 hPa
Sikt 10 km eller mer
Få skyer i en høyde av 2000 ft
Overskyet i en høyde av 2900 ft

METAR: ESNZ 181720Z 27003KT 9999 FEW020 OVC029 05/03 Q1004

Tid: 19:36 (17:36 UTC)

Varsel

Denne rapporten ble laget for 6 minutter siden, klokken 17:30 UTC
Varsel gyldig fra 18. klokken 18 UTC til 18. klokken 22 UTC
Vind 5 kt fra Sørvest
Sikt 10 km eller mer
Få skyer i en høyde av 1500 ft
Brutte skyer i en høyde av 3000 ft
Sannsynlighet 40%
fra 18. klokken 18 UTC til 18. klokken 21 UTC
Sikt: 0700 m
i en høyde av 200 ft
tåke

TAF: ESNZ 181730Z 1818/1822 23005KT 9999 FEW015 BKN030 PROB40 1818/1821 0700 FG VV002

Værobservasjoner og værvarsel for over 4000 flyplasser (METAR- og TAF-rapporter).

Tilgjengelige stasjoner er representert av de røde og gule prikkene på kartet.

Hold musepekeren over prikken for å se navnet på stasjonen.

Klikk så for å se værobservasjoner og -varsler.

For å forandre kartet kan du klikke på den grønne knappen med svart kryss for å zoome inn, på den grønne knappen med strek for å zoome ut, eller på de grønne pilene for å se tilstøtende kart.


METAR-TAF: